createdAt,value
2023-11-18T00:00:18.562Z,-0.33
2023-11-18T00:03:22.487Z,-0.33
2023-11-18T00:06:26.294Z,-0.24
2023-11-18T00:09:31.314Z,-0.27
2023-11-18T00:12:36.250Z,-0.27
2023-11-18T00:15:39.914Z,-0.21
2023-11-18T00:18:44.013Z,-0.23
2023-11-18T00:21:47.685Z,-0.20
2023-11-18T00:24:53.431Z,-0.20
2023-11-18T00:27:57.062Z,-0.24
2023-11-18T00:31:00.902Z,-0.28
2023-11-18T00:34:04.653Z,-0.22
2023-11-18T00:37:09.288Z,-0.24
2023-11-18T00:40:14.450Z,-0.22
2023-11-18T00:43:18.173Z,-0.26
2023-11-18T00:46:21.798Z,-0.43
2023-11-18T00:49:27.214Z,-0.47
2023-11-18T00:52:30.909Z,-0.37
2023-11-18T00:55:36.068Z,-0.49
2023-11-18T00:58:41.515Z,-0.49
2023-11-18T01:01:45.564Z,-0.62
2023-11-18T01:04:49.358Z,-0.59
2023-11-18T01:07:53.056Z,-0.53
2023-11-18T01:10:58.100Z,-0.59
2023-11-18T01:14:01.937Z,-0.48
2023-11-18T01:17:06.641Z,-0.36
2023-11-18T01:20:12.108Z,-0.26
2023-11-18T01:23:16.025Z,-0.12
2023-11-18T01:26:21.660Z,-0.10
2023-11-18T01:29:25.568Z,-0.02
2023-11-18T01:32:31.019Z,0.05
2023-11-18T01:35:34.768Z,-0.10
2023-11-18T01:38:38.818Z,-0.09
2023-11-18T01:41:44.264Z,-0.01
2023-11-18T01:44:48.603Z,0.04
2023-11-18T01:47:53.220Z,0.10
2023-11-18T01:51:00.368Z,0.24
2023-11-18T01:54:06.635Z,0.24
2023-11-18T01:57:12.311Z,0.31
2023-11-18T02:00:19.108Z,0.46
2023-11-18T02:03:23.769Z,0.55
2023-11-18T02:06:28.114Z,0.67
2023-11-18T02:09:32.337Z,0.67
2023-11-18T02:12:49.799Z,0.76
2023-11-18T02:15:58.294Z,0.78
2023-11-18T02:19:04.138Z,0.84
2023-11-18T02:22:10.576Z,0.80
2023-11-18T02:25:19.286Z,0.81
2023-11-18T02:28:24.853Z,0.91
2023-11-18T02:31:38.741Z,1.01
2023-11-18T02:34:52.725Z,1.03
2023-11-18T02:37:57.863Z,0.96
2023-11-18T02:41:08.139Z,0.85
2023-11-18T02:44:18.617Z,0.93
2023-11-18T02:47:23.103Z,1.02
2023-11-18T02:50:28.548Z,1.11
2023-11-18T02:53:34.482Z,1.13
2023-11-18T02:56:38.149Z,1.19
2023-11-18T02:59:43.236Z,1.07
2023-11-18T03:02:48.267Z,1.05
2023-11-18T03:05:51.979Z,1.06
2023-11-18T03:08:55.658Z,1.15
2023-11-18T03:12:00.660Z,1.11
2023-11-18T03:15:10.362Z,1.30
2023-11-18T03:18:14.131Z,1.05
2023-11-18T03:21:18.001Z,1.10
2023-11-18T03:24:21.879Z,1.14
2023-11-18T03:27:25.744Z,1.08
2023-11-18T03:30:31.168Z,1.06
2023-11-18T03:33:35.929Z,1.10
2023-11-18T03:36:39.614Z,1.28
2023-11-18T03:39:43.357Z,1.17
2023-11-18T03:42:47.658Z,1.11
2023-11-18T03:45:53.521Z,1.15
2023-11-18T03:48:57.247Z,1.18
2023-11-18T03:52:00.930Z,1.34
2023-11-18T03:55:06.276Z,1.39
2023-11-18T03:58:10.342Z,1.43
2023-11-18T04:01:22.857Z,1.34
2023-11-18T04:04:26.538Z,1.40
2023-11-18T04:07:30.944Z,1.37
2023-11-18T04:10:34.615Z,1.36
2023-11-18T04:13:38.370Z,1.47
2023-11-18T04:16:43.447Z,1.47
2023-11-18T04:19:48.134Z,1.58
2023-11-18T04:22:51.940Z,1.58
2023-11-18T04:25:55.737Z,1.60
2023-11-18T04:28:59.574Z,1.60
2023-11-18T04:32:04.788Z,1.55
2023-11-18T04:35:11.220Z,1.58
2023-11-18T04:38:15.062Z,1.65
2023-11-18T04:41:18.631Z,1.77
2023-11-18T04:44:22.532Z,1.85
2023-11-18T04:47:28.213Z,1.84
2023-11-18T04:50:33.198Z,1.74
2023-11-18T04:53:36.836Z,1.77
2023-11-18T04:56:40.490Z,1.87
2023-11-18T04:59:45.056Z,1.76
2023-11-18T05:02:50.650Z,1.73
2023-11-18T05:05:57.741Z,1.76
2023-11-18T05:09:02.542Z,1.83
2023-11-18T05:12:08.062Z,1.87
2023-11-18T05:15:12.085Z,1.96
2023-11-18T05:18:17.991Z,1.99
2023-11-18T05:21:22.812Z,2.02
2023-11-18T05:24:26.546Z,1.96
2023-11-18T05:27:30.448Z,1.92
2023-11-18T05:30:34.307Z,1.98
2023-11-18T05:33:39.373Z,1.96
2023-11-18T05:36:43.088Z,1.91
2023-11-18T05:39:46.751Z,1.87
2023-11-18T05:42:53.130Z,1.88
2023-11-18T05:46:12.730Z,1.83
2023-11-18T05:49:17.784Z,1.82
2023-11-18T05:52:22.167Z,1.88
2023-11-18T05:55:25.950Z,1.78
2023-11-18T05:58:29.981Z,1.82
2023-11-18T06:01:33.771Z,1.84
2023-11-18T06:04:39.523Z,1.82
2023-11-18T06:07:44.577Z,1.94
2023-11-18T06:10:48.364Z,1.98
2023-11-18T06:13:53.936Z,2.05
2023-11-18T06:16:57.729Z,2.12
2023-11-18T06:20:02.866Z,2.05
2023-11-18T06:23:07.944Z,2.14
2023-11-18T06:26:12.368Z,2.05
2023-11-18T06:29:16.821Z,2.12
2023-11-18T06:32:20.579Z,2.17
2023-11-18T06:35:26.149Z,2.12
2023-11-18T06:38:31.616Z,2.18
2023-11-18T06:41:38.067Z,2.31
2023-11-18T06:44:41.794Z,2.33
2023-11-18T06:47:46.731Z,2.36
2023-11-18T06:50:52.169Z,2.40
2023-11-18T06:53:57.315Z,2.45
2023-11-18T06:57:00.980Z,2.48
2023-11-18T07:00:09.620Z,2.46
2023-11-18T07:03:13.440Z,2.47
2023-11-18T07:06:23.856Z,2.51
2023-11-18T07:09:27.642Z,2.53
2023-11-18T07:12:31.360Z,2.49
2023-11-18T07:15:34.972Z,2.45
2023-11-18T07:18:41.624Z,2.48
2023-11-18T07:21:48.051Z,2.54
2023-11-18T07:24:52.687Z,2.62
2023-11-18T07:27:57.315Z,2.53
2023-11-18T07:31:01.286Z,2.64
2023-11-18T07:34:07.145Z,2.62
2023-11-18T07:37:14.078Z,2.62
2023-11-18T07:40:23.628Z,2.66
2023-11-18T07:43:30.007Z,2.64
2023-11-18T07:46:33.688Z,2.67
2023-11-18T07:49:37.691Z,2.67
2023-11-18T07:52:43.033Z,2.80
2023-11-18T07:55:49.045Z,2.80
2023-11-18T07:58:53.835Z,2.79
2023-11-18T08:01:57.958Z,2.83
2023-11-18T08:05:01.744Z,2.99
2023-11-18T08:08:07.137Z,2.87
2023-11-18T08:11:14.339Z,2.94
2023-11-18T08:14:18.688Z,3.05
2023-11-18T08:17:22.477Z,3.04
2023-11-18T08:20:26.809Z,3.04
2023-11-18T08:23:32.856Z,3.02
2023-11-18T08:26:36.972Z,3.15
2023-11-18T08:29:40.543Z,3.05
2023-11-18T08:32:46.125Z,2.97
2023-11-18T08:35:51.894Z,3.20
2023-11-18T08:38:57.730Z,3.12
2023-11-18T08:42:01.394Z,3.21
2023-11-18T08:45:09.551Z,3.23
2023-11-18T08:48:14.114Z,3.21
2023-11-18T08:51:18.788Z,3.25
2023-11-18T08:54:37.451Z,3.11
2023-11-18T08:57:53.900Z,3.18
2023-11-18T09:01:07.624Z,3.23
2023-11-18T09:04:11.772Z,3.09
2023-11-18T09:07:16.424Z,3.02
2023-11-18T09:10:22.360Z,2.98
2023-11-18T09:13:30.019Z,2.98
2023-11-18T09:16:39.650Z,3.15
2023-11-18T09:19:43.245Z,3.15
2023-11-18T09:22:47.094Z,3.18
2023-11-18T09:25:53.419Z,3.14
2023-11-18T09:28:57.814Z,3.16
2023-11-18T09:32:05.690Z,3.25
2023-11-18T09:35:13.663Z,3.29
2023-11-18T09:38:17.743Z,3.37
2023-11-18T09:41:28.498Z,3.54
2023-11-18T09:44:33.481Z,3.59
2023-11-18T09:47:43.299Z,3.53
2023-11-18T09:50:49.973Z,3.49
2023-11-18T09:53:55.816Z,3.49
2023-11-18T09:57:11.103Z,3.62
2023-11-18T10:00:22.687Z,3.56
2023-11-18T10:03:27.243Z,3.74
2023-11-18T10:06:35.170Z,3.76
2023-11-18T10:09:40.673Z,3.80
2023-11-18T10:12:52.965Z,3.85
2023-11-18T10:15:58.744Z,3.90
2023-11-18T10:19:09.917Z,3.83
2023-11-18T10:22:26.540Z,3.76
2023-11-18T10:25:30.799Z,3.82
2023-11-18T10:28:39.032Z,3.84
2023-11-18T10:31:46.546Z,3.91
2023-11-18T10:34:51.792Z,3.95
2023-11-18T10:37:55.538Z,3.84
2023-11-18T10:41:02.222Z,3.91
2023-11-18T10:44:15.997Z,3.99
2023-11-18T10:47:21.819Z,3.88
2023-11-18T10:50:33.159Z,4.06
2023-11-18T10:53:38.534Z,4.02
2023-11-18T10:56:50.328Z,4.12
2023-11-18T11:00:14.678Z,4.01
2023-11-18T11:03:19.634Z,4.07
2023-11-18T11:06:25.432Z,4.04
2023-11-18T11:09:29.791Z,4.06
2023-11-18T11:12:53.216Z,4.06
2023-11-18T11:16:03.182Z,4.13
2023-11-18T11:19:10.145Z,4.17
2023-11-18T11:22:22.158Z,4.24
2023-11-18T11:25:36.549Z,4.11
2023-11-18T11:28:47.950Z,4.33
2023-11-18T11:32:13.805Z,4.29
2023-11-18T11:35:26.160Z,4.27
2023-11-18T11:38:30.253Z,4.27
2023-11-18T11:41:35.583Z,4.38
2023-11-18T11:44:43.655Z,4.24
2023-11-18T11:47:52.453Z,4.31
2023-11-18T11:51:16.254Z,4.45
2023-11-18T11:54:30.242Z,4.50
2023-11-18T11:57:40.294Z,4.46
2023-11-18T12:00:44.537Z,4.52
2023-11-18T12:03:51.132Z,4.66
2023-11-18T12:07:05.824Z,4.60
2023-11-18T12:10:22.173Z,4.59
2023-11-18T12:13:27.669Z,4.71
2023-11-18T12:17:08.753Z,4.62
2023-11-18T12:20:43.466Z,4.68
2023-11-18T12:24:20.413Z,4.72
2023-11-18T12:27:52.729Z,4.69
2023-11-18T12:31:07.441Z,4.77
2023-11-18T12:34:12.245Z,4.76
2023-11-18T12:37:55.262Z,4.74
2023-11-18T12:41:01.200Z,4.88
2023-11-18T12:44:33.002Z,4.85
2023-11-18T12:47:42.468Z,4.76
2023-11-18T12:50:48.243Z,4.81
2023-11-18T12:53:54.975Z,4.78
2023-11-18T12:56:59.101Z,4.83
2023-11-18T13:00:05.643Z,4.82
2023-11-18T13:03:11.958Z,4.75
2023-11-18T13:06:16.260Z,4.72
2023-11-18T13:09:27.569Z,4.71
2023-11-18T13:12:31.453Z,4.70
2023-11-18T13:15:38.667Z,4.74
2023-11-18T13:18:50.357Z,4.69
2023-11-18T13:21:56.021Z,4.68
2023-11-18T13:25:01.132Z,4.72
2023-11-18T13:28:07.458Z,4.77
2023-11-18T13:31:11.458Z,4.70
2023-11-18T13:34:15.311Z,4.68
2023-11-18T13:37:23.782Z,4.69
2023-11-18T13:40:31.124Z,4.69
2023-11-18T13:43:45.292Z,4.72
2023-11-18T13:46:51.240Z,4.73
2023-11-18T13:49:59.705Z,4.77
2023-11-18T13:53:04.548Z,4.77
2023-11-18T13:56:11.114Z,4.81
2023-11-18T13:59:15.550Z,4.81
2023-11-18T14:02:20.158Z,4.86
2023-11-18T14:05:25.742Z,4.85
2023-11-18T14:08:29.511Z,4.94
2023-11-18T14:11:35.744Z,4.91
2023-11-18T14:14:39.604Z,4.84
2023-11-18T14:17:46.132Z,4.88
2023-11-18T14:20:51.253Z,5.00
2023-11-18T14:23:57.381Z,4.94
2023-11-18T14:27:02.435Z,4.90
2023-11-18T14:30:09.472Z,4.93
2023-11-18T14:33:13.233Z,4.93
2023-11-18T14:36:17.128Z,4.92
2023-11-18T14:39:24.090Z,4.97
2023-11-18T14:42:29.355Z,4.95
2023-11-18T14:45:50.087Z,4.95
2023-11-18T14:48:53.821Z,4.97
2023-11-18T14:51:57.949Z,4.89
2023-11-18T14:55:01.945Z,4.83
2023-11-18T14:58:08.254Z,4.72
2023-11-18T15:01:13.496Z,4.81
2023-11-18T15:04:17.249Z,4.75
2023-11-18T15:07:20.867Z,4.68
2023-11-18T15:10:26.768Z,4.68
2023-11-18T15:13:31.741Z,4.67
2023-11-18T15:16:35.513Z,4.63
2023-11-18T15:19:39.569Z,4.57
2023-11-18T15:22:45.491Z,4.57
2023-11-18T15:25:51.185Z,4.52
2023-11-18T15:28:58.147Z,4.59
2023-11-18T15:32:01.933Z,4.48
2023-11-18T15:35:09.957Z,4.52
2023-11-18T15:38:18.797Z,4.51
2023-11-18T15:41:23.624Z,4.43
2023-11-18T15:44:29.705Z,4.40
2023-11-18T15:47:33.525Z,4.34
2023-11-18T15:50:39.122Z,4.38
2023-11-18T15:53:42.908Z,4.34
2023-11-18T15:56:47.003Z,4.31
2023-11-18T15:59:52.140Z,4.28
2023-11-18T16:03:01.876Z,4.29
2023-11-18T16:06:07.972Z,4.28
2023-11-18T16:09:11.667Z,4.21
2023-11-18T16:12:15.748Z,4.29
2023-11-18T16:15:21.863Z,4.29
2023-11-18T16:18:25.611Z,4.30
2023-11-18T16:21:29.332Z,4.29
2023-11-18T16:24:33.002Z,4.33
2023-11-18T16:27:36.714Z,4.25
2023-11-18T16:30:41.804Z,4.27
2023-11-18T16:33:46.659Z,4.20
2023-11-18T16:36:50.726Z,4.20
2023-11-18T16:39:55.000Z,4.26
2023-11-18T16:43:01.255Z,4.25
2023-11-18T16:46:07.609Z,4.29
2023-11-18T16:49:13.674Z,4.25
2023-11-18T16:52:17.743Z,4.20
2023-11-18T16:55:22.506Z,4.19
2023-11-18T16:58:26.489Z,4.25
2023-11-18T17:01:31.685Z,4.20
2023-11-18T17:04:38.205Z,4.22
2023-11-18T17:07:42.268Z,4.25
2023-11-18T17:10:52.997Z,4.19
2023-11-18T17:13:56.671Z,4.22
2023-11-18T17:17:02.086Z,4.19
2023-11-18T17:20:10.662Z,4.20
2023-11-18T17:23:14.403Z,4.20
2023-11-18T17:26:18.226Z,4.22
2023-11-18T17:29:22.145Z,4.21
2023-11-18T17:32:27.497Z,4.29
2023-11-18T17:35:31.863Z,4.27
2023-11-18T17:38:37.038Z,4.24
2023-11-18T17:41:40.651Z,4.26
2023-11-18T17:44:44.386Z,4.31
2023-11-18T17:47:49.567Z,4.25
2023-11-18T17:50:54.803Z,4.24
2023-11-18T17:53:58.529Z,4.31
2023-11-18T17:57:02.250Z,4.29
2023-11-18T18:00:13.204Z,4.32
2023-11-18T18:03:18.621Z,4.31
2023-11-18T18:06:22.395Z,4.34
2023-11-18T18:09:28.679Z,4.26
2023-11-18T18:12:33.245Z,4.31
2023-11-18T18:15:39.444Z,4.26
2023-11-18T18:18:44.562Z,4.29
2023-11-18T18:21:48.245Z,4.28
2023-11-18T18:24:51.883Z,4.24
2023-11-18T18:27:55.554Z,4.20
2023-11-18T18:30:59.285Z,4.21
2023-11-18T18:34:04.804Z,4.20
2023-11-18T18:37:08.900Z,4.19
2023-11-18T18:40:15.771Z,4.18
2023-11-18T18:43:19.433Z,4.12
2023-11-18T18:46:23.103Z,4.08
2023-11-18T18:49:28.653Z,4.10
2023-11-18T18:52:32.389Z,4.12
2023-11-18T18:55:37.212Z,4.13
2023-11-18T18:58:41.057Z,4.09
2023-11-18T19:01:46.115Z,4.10
2023-11-18T19:04:51.396Z,4.10
2023-11-18T19:07:57.127Z,4.07
2023-11-18T19:11:01.159Z,4.09
2023-11-18T19:14:05.038Z,4.11
2023-11-18T19:17:08.820Z,4.14
2023-11-18T19:20:15.814Z,4.12
2023-11-18T19:23:19.916Z,4.10
2023-11-18T19:26:23.542Z,4.13
2023-11-18T19:29:27.396Z,4.15
2023-11-18T19:32:31.267Z,4.09
2023-11-18T19:35:36.376Z,4.12
2023-11-18T19:38:40.131Z,4.18
2023-11-18T19:41:43.896Z,4.17
2023-11-18T19:44:48.274Z,4.19
2023-11-18T19:47:52.647Z,4.18
2023-11-18T19:50:57.659Z,4.18
2023-11-18T19:54:01.337Z,4.19
2023-11-18T19:57:05.168Z,4.21
2023-11-18T20:00:13.036Z,4.19
2023-11-18T20:03:16.903Z,4.21
2023-11-18T20:06:22.067Z,4.23
2023-11-18T20:09:26.767Z,4.24
2023-11-18T20:12:33.208Z,4.23
2023-11-18T20:15:38.598Z,4.29
2023-11-18T20:18:42.326Z,4.30
2023-11-18T20:21:47.478Z,4.28
2023-11-18T20:24:51.131Z,4.28
2023-11-18T20:27:55.678Z,4.28
2023-11-18T20:30:59.363Z,4.25
2023-11-18T20:34:03.958Z,4.26
2023-11-18T20:37:08.941Z,4.29
2023-11-18T20:40:15.018Z,4.27
2023-11-18T20:43:18.725Z,4.27
2023-11-18T20:46:22.407Z,4.34
2023-11-18T20:49:26.223Z,4.32
2023-11-18T20:52:33.380Z,4.32
2023-11-18T20:55:37.081Z,4.31
2023-11-18T20:58:42.542Z,4.32
2023-11-18T21:01:47.380Z,4.31
2023-11-18T21:04:51.208Z,4.35
2023-11-18T21:07:56.553Z,4.34
2023-11-18T21:11:00.411Z,4.35
2023-11-18T21:14:05.534Z,4.39
2023-11-18T21:17:12.572Z,4.36
2023-11-18T21:20:16.474Z,4.37
2023-11-18T21:23:21.578Z,4.39
2023-11-18T21:26:26.396Z,4.37
2023-11-18T21:29:30.513Z,4.39
2023-11-18T21:32:34.229Z,4.40
2023-11-18T21:35:37.893Z,4.46
2023-11-18T21:38:43.094Z,4.45
2023-11-18T21:41:46.927Z,4.49
2023-11-18T21:44:50.896Z,4.47
2023-11-18T21:47:56.305Z,4.45
2023-11-18T21:51:00.238Z,4.51
2023-11-18T21:54:05.954Z,4.55
2023-11-18T21:57:10.646Z,4.56
2023-11-18T22:00:18.153Z,4.55
2023-11-18T22:03:22.069Z,4.59
2023-11-18T22:06:25.805Z,4.54
2023-11-18T22:09:30.961Z,4.57
2023-11-18T22:12:34.865Z,4.67
2023-11-18T22:15:38.627Z,4.61
2023-11-18T22:18:42.389Z,4.64
2023-11-18T22:21:46.536Z,4.67
2023-11-18T22:24:53.171Z,4.69
2023-11-18T22:27:56.876Z,4.72
2023-11-18T22:31:00.726Z,4.71
2023-11-18T22:34:04.781Z,4.74
2023-11-18T22:37:08.412Z,4.75
2023-11-18T22:40:17.428Z,4.75
2023-11-18T22:43:22.430Z,4.74
2023-11-18T22:46:26.169Z,4.78
2023-11-18T22:49:30.048Z,4.79
2023-11-18T22:52:33.643Z,4.77
2023-11-18T22:55:39.613Z,4.79
2023-11-18T22:58:43.387Z,4.83
2023-11-18T23:01:47.353Z,4.87
2023-11-18T23:04:50.963Z,4.88
2023-11-18T23:07:57.793Z,4.86
2023-11-18T23:11:03.102Z,4.92
2023-11-18T23:14:06.962Z,5.05
2023-11-18T23:17:10.644Z,4.93
2023-11-18T23:20:14.554Z,5.00
2023-11-18T23:23:19.234Z,4.96
2023-11-18T23:26:24.466Z,5.01
2023-11-18T23:29:28.212Z,5.04
2023-11-18T23:32:31.824Z,5.09
2023-11-18T23:35:36.241Z,5.15
2023-11-18T23:38:40.183Z,5.12
2023-11-18T23:41:45.208Z,5.18
2023-11-18T23:44:48.955Z,5.30
2023-11-18T23:47:52.990Z,5.23
2023-11-18T23:50:57.031Z,5.29
2023-11-18T23:54:00.665Z,5.28
2023-11-18T23:57:06.283Z,5.30
